Time;durP1;ratioP1;P1;durP2;ratioP2;P2;SDS_P1;SDS_P2;PMS_P1;PMS_P2;Temp;Humidity;BMP_temperature;BMP_pressure;BME280_temperature;BME280_humidity;BME280_pressure;Samples;Min_cycle;Max_cycle;Signal;HPM_P1;HPM_P2
2023/05/06 00:01:33;;;;;;;9.52;7.43;;;15.40;99.90;;;;;;5039505;28;20022;-72
2023/05/06 00:03:59;;;;;;;10.25;7.40;;;15.30;99.90;;;;;;5039505;28;20025;-72
2023/05/06 00:06:26;;;;;;;12.05;8.15;;;15.30;99.90;;;;;;5039222;28;20029;-72
2023/05/06 00:08:51;;;;;;;14.43;7.72;;;15.20;99.90;;;;;;5039300;28;20371;-72
2023/05/06 00:11:17;;;;;;;10.65;7.78;;;15.10;99.90;;;;;;5039290;28;20036;-72
2023/05/06 00:13:43;;;;;;;14.93;7.85;;;15.10;99.90;;;;;;5039520;28;20029;-72
2023/05/06 00:16:08;;;;;;;10.80;8.23;;;15.10;99.90;;;;;;5039439;28;20066;-72
2023/05/06 00:18:34;;;;;;;10.10;8.13;;;15.10;99.90;;;;;;5039039;28;20457;-72
2023/05/06 00:21:00;;;;;;;9.40;8.30;;;15.00;99.90;;;;;;5038955;28;20013;-72
2023/05/06 00:23:25;;;;;;;8.20;7.40;;;15.00;99.90;;;;;;5039180;28;20026;-72
2023/05/06 00:25:53;;;;;;;9.55;8.23;;;14.90;99.90;;;;;;5039173;28;20067;-72
2023/05/06 00:28:19;;;;;;;11.93;8.07;;;14.90;99.90;;;;;;5039139;28;20022;-72
2023/05/06 00:30:44;;;;;;;9.02;7.90;;;14.90;99.90;;;;;;5039270;28;20029;-72
2023/05/06 00:33:10;;;;;;;10.23;8.07;;;14.90;99.90;;;;;;5038775;28;20032;-72
2023/05/06 00:35:36;;;;;;;9.88;7.43;;;14.80;99.90;;;;;;5038796;28;20060;-72
2023/05/06 00:38:10;;;;;;;10.88;8.15;;;14.80;99.90;;;;;;5038738;28;20101;-72
2023/05/06 00:40:36;;;;;;;9.60;8.60;;;14.70;99.90;;;;;;5038912;28;20486;-72
2023/05/06 00:43:02;;;;;;;10.70;7.95;;;14.60;99.90;;;;;;5038484;28;20032;-72
2023/05/06 00:45:28;;;;;;;13.63;10.32;;;14.70;99.90;;;;;;5037333;28;20033;-72
2023/05/06 00:47:54;;;;;;;13.88;8.70;;;14.50;99.90;;;;;;5038598;28;20044;-72
2023/05/06 00:50:21;;;;;;;14.65;10.75;;;14.50;99.90;;;;;;5036689;28;20405;-72
2023/05/06 00:52:47;;;;;;;11.27;9.60;;;14.50;99.90;;;;;;5038442;28;20398;-72
2023/05/06 00:55:13;;;;;;;11.57;9.55;;;14.50;99.90;;;;;;5037696;28;20060;-72
2023/05/06 00:57:39;;;;;;;12.77;8.82;;;14.50;99.90;;;;;;5038223;28;20036;-72
2023/05/06 01:00:06;;;;;;;10.65;9.18;;;14.40;99.90;;;;;;5036877;28;20101;-72
2023/05/06 01:02:32;;;;;;;10.93;9.35;;;14.40;99.90;;;;;;5038774;28;20482;-72
2023/05/06 01:04:58;;;;;;;12.35;10.40;;;14.40;99.90;;;;;;5037799;28;20175;-72
2023/05/06 01:07:27;;;;;;;12.98;9.45;;;14.40;99.90;;;;;;5038317;28;20041;-72
2023/05/06 01:10:12;;;;;;;18.35;9.70;;;14.40;99.90;;;;;;5026431;28;20022;-72
2023/05/06 01:13:07;;;;;;;14.68;10.52;;;14.40;99.90;;;;;;5037213;28;20038;-72
2023/05/06 01:15:40;;;;;;;17.63;12.10;;;14.30;99.90;;;;;;5034065;28;20109;-72
2023/05/06 01:18:14;;;;;;;14.68;11.07;;;14.30;99.90;;;;;;5035867;28;20171;-72
2023/05/06 01:20:42;;;;;;;13.57;11.65;;;14.30;99.90;;;;;;5037818;28;20090;-72
2023/05/06 01:23:12;;;;;;;15.70;11.10;;;14.40;99.90;;;;;;5036598;28;20032;-72
2023/05/06 01:25:38;;;;;;;13.32;10.52;;;14.40;99.90;;;;;;5036658;28;20025;-72
2023/05/06 01:28:08;;;;;;;15.45;10.25;;;14.30;99.90;;;;;;5037787;28;20037;-72
2023/05/06 01:31:01;;;;;;;12.98;10.25;;;14.40;99.90;;;;;;5038039;28;20026;-72
2023/05/06 01:33:36;;;;;;;13.55;10.48;;;14.30;99.90;;;;;;5037348;28;20080;-73
2023/05/06 01:36:05;;;;;;;11.93;9.60;;;14.30;99.90;;;;;;5037309;28;20025;-72
2023/05/06 01:39:02;;;;;;;18.67;11.07;;;14.30;99.90;;;;;;5036797;28;20026;-72
2023/05/06 01:41:32;;;;;;;22.73;12.23;;;14.30;99.90;;;;;;5036905;28;20022;-72
2023/05/06 01:44:00;;;;;;;14.75;11.00;;;14.30;99.90;;;;;;5040760;28;20022;-72
2023/05/06 01:46:28;;;;;;;14.30;11.10;;;14.30;99.90;;;;;;5036418;28;20037;-72
2023/05/06 01:48:55;;;;;;;13.35;11.35;;;14.30;99.90;;;;;;5037814;28;20021;-71
2023/05/06 01:51:22;;;;;;;16.38;11.07;;;14.30;99.90;;;;;;5037286;28;20022;-72
2023/05/06 01:53:47;;;;;;;15.25;11.25;;;14.40;99.90;;;;;;5037469;28;20029;-72
2023/05/06 01:56:13;;;;;;;13.68;11.95;;;14.40;99.90;;;;;;5036507;28;20512;-71
2023/05/06 01:58:39;;;;;;;14.55;11.15;;;14.40;99.90;;;;;;5037309;28;20539;-71
2023/05/06 02:01:04;;;;;;;15.23;11.10;;;14.30;99.90;;;;;;5035975;28;20461;-71
2023/05/06 02:03:30;;;;;;;15.60;11.00;;;14.30;99.90;;;;;;5037112;28;20026;-71
2023/05/06 02:05:56;;;;;;;15.60;12.00;;;14.30;99.90;;;;;;5036905;28;20556;-72
2023/05/06 02:08:21;;;;;;;16.77;11.55;;;14.30;99.90;;;;;;5035888;28;20056;-72
2023/05/06 02:10:47;;;;;;;15.02;10.82;;;14.20;99.90;;;;;;5037315;28;20494;-72
2023/05/06 02:13:13;;;;;;;17.67;11.95;;;14.20;99.90;;;;;;5036273;28;20093;-72
2023/05/06 02:15:38;;;;;;;16.92;11.50;;;14.20;99.90;;;;;;5037382;28;20101;-72
2023/05/06 02:18:04;;;;;;;15.82;11.23;;;14.20;99.90;;;;;;5036740;28;20053;-72
2023/05/06 02:20:30;;;;;;;19.33;12.38;;;14.20;99.90;;;;;;5036403;28;20037;-72
2023/05/06 02:22:55;;;;;;;16.75;11.25;;;14.20;99.90;;;;;;5036982;28;20093;-72
2023/05/06 02:25:22;;;;;;;13.52;12.07;;;14.20;99.90;;;;;;5037127;28;20075;-72
2023/05/06 02:27:47;;;;;;;12.57;11.13;;;14.20;99.90;;;;;;5037113;28;20033;-71
2023/05/06 02:30:13;;;;;;;19.40;10.82;;;14.20;99.90;;;;;;5037049;28;20104;-72
2023/05/06 02:32:40;;;;;;;17.80;11.45;;;14.20;99.90;;;;;;5036981;28;20030;-72
2023/05/06 02:35:06;;;;;;;19.88;11.60;;;14.20;99.90;;;;;;5035861;28;20382;-72
2023/05/06 02:37:32;;;;;;;14.13;11.50;;;14.20;99.90;;;;;;5036918;28;20025;-72
2023/05/06 02:39:57;;;;;;;16.35;11.45;;;14.20;99.90;;;;;;5035755;28;20025;-72
2023/05/06 02:42:23;;;;;;;19.13;11.90;;;14.20;99.90;;;;;;5036800;28;20030;-72
2023/05/06 02:44:49;;;;;;;14.30;12.00;;;14.10;99.90;;;;;;5036829;28;20013;-71
2023/05/06 02:47:14;;;;;;;14.68;11.20;;;14.10;99.90;;;;;;5036942;28;20017;-72
2023/05/06 02:49:40;;;;;;;15.93;12.55;;;14.10;99.90;;;;;;5036499;28;20029;-72
2023/05/06 02:52:06;;;;;;;13.10;11.80;;;14.10;99.90;;;;;;5036888;28;20018;-72
2023/05/06 02:54:31;;;;;;;16.63;13.02;;;14.00;99.90;;;;;;5035358;28;20440;-72
2023/05/06 02:56:57;;;;;;;20.75;12.80;;;14.00;99.90;;;;;;5035574;28;20025;-72
2023/05/06 02:59:23;;;;;;;18.95;12.60;;;14.00;99.90;;;;;;5034650;28;20025;-72
2023/05/06 03:01:48;;;;;;;17.80;12.18;;;14.00;99.90;;;;;;5036442;28;20022;-71
2023/05/06 03:04:14;;;;;;;18.02;12.18;;;13.90;99.90;;;;;;5035086;28;20028;-71
2023/05/06 03:06:39;;;;;;;16.15;11.55;;;14.00;99.90;;;;;;5036006;28;20080;-71
2023/05/06 03:09:05;;;;;;;14.18;11.85;;;14.00;99.90;;;;;;5036517;28;20022;-72
2023/05/06 03:11:31;;;;;;;16.95;13.07;;;14.00;99.90;;;;;;5036352;28;20474;-71
2023/05/06 03:13:57;;;;;;;18.13;12.27;;;14.00;99.90;;;;;;5036576;28;20025;-72
2023/05/06 03:16:23;;;;;;;14.20;12.55;;;14.00;99.90;;;;;;5036472;28;20091;-72
2023/05/06 03:18:49;;;;;;;16.02;12.52;;;14.00;99.90;;;;;;5036130;28;20096;-72
2023/05/06 03:21:15;;;;;;;17.00;12.38;;;13.90;99.90;;;;;;5035302;28;20021;-72
2023/05/06 03:23:40;;;;;;;15.35;13.15;;;13.90;99.90;;;;;;5036663;28;20021;-72
2023/05/06 03:26:06;;;;;;;18.42;13.38;;;13.90;99.90;;;;;;5036676;28;20764;-72
2023/05/06 03:28:32;;;;;;;18.08;12.98;;;13.80;99.90;;;;;;5036543;28;20049;-72
2023/05/06 03:30:58;;;;;;;17.83;13.10;;;13.80;99.90;;;;;;5035222;28;20025;-72
2023/05/06 03:33:23;;;;;;;18.30;14.25;;;13.80;99.90;;;;;;5038889;28;20109;-72
2023/05/06 03:35:49;;;;;;;15.82;12.80;;;13.70;99.90;;;;;;5040074;28;20029;-72
2023/05/06 03:38:15;;;;;;;17.00;14.73;;;13.70;99.90;;;;;;5038213;28;20017;-72
2023/05/06 03:40:41;;;;;;;18.17;14.75;;;13.70;99.90;;;;;;5040286;28;20043;-71
2023/05/06 03:43:06;;;;;;;18.08;14.23;;;13.70;99.90;;;;;;5040178;28;20021;-72
2023/05/06 03:45:32;;;;;;;16.65;13.88;;;13.70;99.90;;;;;;5040280;28;20033;-72
2023/05/06 03:47:57;;;;;;;23.33;15.80;;;13.60;99.90;;;;;;5039956;28;20512;-72
2023/05/06 03:50:23;;;;;;;25.67;16.60;;;13.70;99.90;;;;;;5040221;28;20036;-71
2023/05/06 03:52:49;;;;;;;22.63;16.15;;;13.60;99.90;;;;;;5038776;28;20524;-71
2023/05/06 03:55:15;;;;;;;24.38;15.10;;;13.70;99.90;;;;;;5040124;28;20029;-71
2023/05/06 03:57:41;;;;;;;22.70;15.45;;;13.70;99.90;;;;;;5040053;28;20018;-71
2023/05/06 04:00:08;;;;;;;19.88;15.23;;;13.70;99.90;;;;;;5040092;28;20018;-71
2023/05/06 04:02:36;;;;;;;19.73;15.88;;;13.70;99.90;;;;;;5040044;28;20477;-72
2023/05/06 04:05:02;;;;;;;18.52;15.40;;;13.80;99.90;;;;;;5039529;28;20029;-71
2023/05/06 04:07:29;;;;;;;19.63;15.52;;;13.90;99.90;;;;;;5038541;28;20441;-72
2023/05/06 04:09:54;;;;;;;27.95;15.88;;;14.00;99.90;;;;;;5038440;28;20079;-72
2023/05/06 04:12:20;;;;;;;19.98;16.33;;;14.00;99.90;;;;;;5039763;28;20021;-72
2023/05/06 04:14:46;;;;;;;21.55;14.98;;;14.00;99.90;;;;;;5039874;28;20029;-72
2023/05/06 04:17:12;;;;;;;17.83;14.77;;;14.00;99.90;;;;;;5039184;28;20462;-72
2023/05/06 04:19:37;;;;;;;17.63;14.38;;;14.00;99.90;;;;;;5039328;28;20030;-71
2023/05/06 04:22:03;;;;;;;17.02;14.80;;;14.00;99.90;;;;;;5039078;28;20026;-72
2023/05/06 04:24:30;;;;;;;16.80;14.32;;;14.00;99.90;;;;;;5039842;28;20036;-71
2023/05/06 04:26:56;;;;;;;16.05;14.27;;;14.10;99.90;;;;;;5038022;28;20504;-72
2023/05/06 04:29:21;;;;;;;18.73;15.15;;;14.00;99.90;;;;;;5039414;28;20396;-71
2023/05/06 04:31:47;;;;;;;21.33;14.50;;;14.10;99.90;;;;;;5039383;28;20025;-72
2023/05/06 04:34:13;;;;;;;19.13;15.07;;;14.10;99.90;;;;;;5039304;28;20025;-72
2023/05/06 04:36:38;;;;;;;17.95;14.85;;;14.10;99.90;;;;;;5038857;28;20041;-72
2023/05/06 04:39:05;;;;;;;16.60;13.82;;;14.10;99.90;;;;;;5039396;28;20539;-72
2023/05/06 04:41:32;;;;;;;26.45;15.48;;;14.10;99.90;;;;;;5038995;28;20010;-72
2023/05/06 04:43:57;;;;;;;19.35;14.15;;;14.10;99.90;;;;;;5038079;28;20026;-71
2023/05/06 04:46:23;;;;;;;19.42;12.85;;;14.10;99.90;;;;;;5038716;28;20082;-72
2023/05/06 04:48:49;;;;;;;15.73;13.63;;;14.10;99.90;;;;;;5037682;28;20029;-72
2023/05/06 04:51:14;;;;;;;21.50;14.23;;;14.10;99.90;;;;;;5037450;28;20025;-72
2023/05/06 04:53:40;;;;;;;16.48;13.35;;;14.00;99.90;;;;;;5039296;28;20474;-72
2023/05/06 04:56:07;;;;;;;19.85;12.77;;;14.00;99.90;;;;;;5038821;28;20022;-71
2023/05/06 04:58:33;;;;;;;19.50;13.27;;;14.00;99.90;;;;;;5038615;28;20018;-72
2023/05/06 05:01:03;;;;;;;21.00;13.82;;;14.00;99.90;;;;;;5037271;28;20028;-72
2023/05/06 05:03:29;;;;;;;23.73;14.07;;;13.90;99.90;;;;;;5035478;28;20033;-72
2023/05/06 05:05:54;;;;;;;17.90;12.80;;;14.00;99.90;;;;;;5032843;28;20108;-71
2023/05/06 05:08:20;;;;;;;17.15;12.95;;;13.90;99.90;;;;;;5034710;28;20063;-71
2023/05/06 05:10:46;;;;;;;17.08;13.88;;;14.00;99.90;;;;;;5032818;28;20026;-71
2023/05/06 05:13:12;;;;;;;15.73;14.02;;;13.90;99.90;;;;;;5034011;28;20105;-71
2023/05/06 05:15:39;;;;;;;18.63;13.45;;;14.00;99.90;;;;;;5027436;28;20028;-71
2023/05/06 05:18:04;;;;;;;18.35;14.63;;;14.00;99.90;;;;;;5033084;28;20046;-71
2023/05/06 05:20:30;;;;;;;17.30;12.82;;;14.10;99.90;;;;;;5037865;28;20052;-71
2023/05/06 05:22:56;;;;;;;18.25;13.00;;;14.10;99.90;;;;;;5037723;28;20033;-71
2023/05/06 05:25:22;;;;;;;15.38;13.27;;;14.20;99.90;;;;;;5036032;28;20040;-72
2023/05/06 05:27:48;;;;;;;15.63;12.88;;;14.30;99.90;;;;;;5036923;28;20121;-71
2023/05/06 05:30:13;;;;;;;19.98;13.40;;;14.40;99.90;;;;;;5038288;28;20026;-72
2023/05/06 05:32:39;;;;;;;15.65;12.20;;;14.40;99.90;;;;;;5038182;28;20504;-72
2023/05/06 05:35:05;;;;;;;15.30;12.10;;;14.50;99.90;;;;;;5037769;28;20026;-72
2023/05/06 05:37:31;;;;;;;14.13;12.65;;;14.60;99.90;;;;;;5036849;28;20102;-71
2023/05/06 05:39:57;;;;;;;18.17;12.85;;;14.60;99.90;;;;;;5038196;28;20091;-72
2023/05/06 05:42:22;;;;;;;20.27;11.70;;;14.70;99.90;;;;;;5037973;28;20087;-71
2023/05/06 05:44:48;;;;;;;17.92;11.43;;;14.70;99.90;;;;;;5034929;28;20030;-71
2023/05/06 05:47:14;;;;;;;14.07;10.98;;;14.80;99.90;;;;;;5023615;28;20084;-71
2023/05/06 05:49:40;;;;;;;12.77;10.02;;;14.80;99.90;;;;;;5032709;28;20511;-72
2023/05/06 05:52:06;;;;;;;14.55;10.82;;;14.90;99.90;;;;;;5036654;28;20108;-72
2023/05/06 05:54:32;;;;;;;17.33;11.15;;;15.00;99.90;;;;;;5037782;28;20021;-72
2023/05/06 05:56:58;;;;;;;11.55;9.80;;;15.00;99.90;;;;;;5037492;28;20030;-72
2023/05/06 05:59:24;;;;;;;14.85;10.35;;;15.10;99.90;;;;;;5037161;28;20485;-72
2023/05/06 06:01:50;;;;;;;12.88;8.82;;;15.20;99.90;;;;;;5036556;28;20026;-72
2023/05/06 06:04:15;;;;;;;12.35;9.95;;;15.20;99.90;;;;;;5037495;28;20028;-72
2023/05/06 06:06:41;;;;;;;11.38;8.88;;;15.30;99.90;;;;;;5037506;28;20065;-72
2023/05/06 06:09:08;;;;;;;13.02;8.88;;;15.30;99.90;;;;;;5037618;28;20056;-72
2023/05/06 06:11:33;;;;;;;11.48;8.05;;;15.40;99.90;;;;;;5035934;28;20757;-72
2023/05/06 06:13:59;;;;;;;10.23;7.68;;;15.40;99.90;;;;;;5034243;28;20128;-71
2023/05/06 06:16:25;;;;;;;11.75;8.18;;;15.50;99.90;;;;;;5026084;28;20029;-72
2023/05/06 06:18:52;;;;;;;12.32;7.82;;;15.60;99.90;;;;;;5035401;28;20037;-72
2023/05/06 06:21:17;;;;;;;10.05;7.97;;;15.70;99.90;;;;;;5037358;28;20026;-72
2023/05/06 06:23:43;;;;;;;11.07;7.82;;;15.80;99.90;;;;;;5037260;28;20132;-72
2023/05/06 06:26:09;;;;;;;8.55;7.05;;;15.90;99.90;;;;;;5037437;28;20037;-72
2023/05/06 06:28:35;;;;;;;9.25;6.53;;;16.00;99.90;;;;;;5036134;28;20037;-72
2023/05/06 06:31:00;;;;;;;9.18;6.05;;;16.20;99.90;;;;;;5037144;28;20176;-72
2023/05/06 06:33:26;;;;;;;8.63;6.55;;;16.20;99.90;;;;;;5037109;28;20025;-73
2023/05/06 06:35:52;;;;;;;8.30;6.43;;;16.20;99.90;;;;;;5036631;28;20037;-72
2023/05/06 06:38:18;;;;;;;8.32;5.88;;;16.20;99.90;;;;;;5035951;28;20519;-72
2023/05/06 06:40:43;;;;;;;6.88;6.03;;;16.30;99.90;;;;;;5027313;28;20033;-74
2023/05/06 06:43:09;;;;;;;11.60;5.93;;;16.30;99.90;;;;;;5036992;28;20028;-72
2023/05/06 06:45:35;;;;;;;7.72;5.57;;;16.40;99.90;;;;;;5037011;28;20053;-73
2023/05/06 06:48:01;;;;;;;8.73;5.90;;;16.40;99.90;;;;;;5035289;28;20028;-73
2023/05/06 06:50:26;;;;;;;8.63;5.70;;;16.50;99.90;;;;;;5035378;28;20081;-72
2023/05/06 06:52:52;;;;;;;6.18;5.45;;;16.70;99.90;;;;;;5036828;28;20033;-73
2023/05/06 06:55:18;;;;;;;6.78;4.93;;;16.80;99.90;;;;;;5032113;28;20499;-73
2023/05/06 06:57:43;;;;;;;7.75;4.63;;;17.00;99.90;;;;;;5023411;28;20470;-73
2023/05/06 07:00:09;;;;;;;10.82;5.13;;;17.10;99.90;;;;;;5021672;28;20026;-73
2023/05/06 07:02:35;;;;;;;5.63;5.07;;;17.10;99.90;;;;;;5024369;28;20018;-72
2023/05/06 07:05:02;;;;;;;7.63;5.30;;;17.10;99.90;;;;;;5036501;28;20056;-72
2023/05/06 07:07:28;;;;;;;5.72;4.45;;;17.10;99.90;;;;;;5036325;28;20021;-74
2023/05/06 07:09:53;;;;;;;6.68;4.32;;;17.20;99.90;;;;;;5041071;28;20474;-73
2023/05/06 07:12:19;;;;;;;6.18;3.78;;;17.30;99.90;;;;;;5040780;28;20025;-73
2023/05/06 07:14:45;;;;;;;5.78;3.70;;;17.40;99.90;;;;;;5041147;28;20398;-73
2023/05/06 07:17:10;;;;;;;6.95;4.88;;;17.60;99.90;;;;;;5038430;28;20061;-73
2023/05/06 07:19:36;;;;;;;10.50;4.20;;;17.80;99.90;;;;;;5040276;28;20029;-73
2023/05/06 07:22:02;;;;;;;5.15;3.67;;;18.00;99.90;;;;;;5038763;28;20037;-73
2023/05/06 07:24:28;;;;;;;5.90;4.50;;;18.10;99.90;;;;;;5029176;28;20021;-73
2023/05/06 07:26:53;;;;;;;4.25;3.13;;;18.10;99.90;;;;;;5040393;28;20079;-73
2023/05/06 07:29:19;;;;;;;4.32;3.42;;;18.20;99.90;;;;;;5040446;28;20100;-73
2023/05/06 07:31:45;;;;;;;5.35;3.60;;;18.20;99.90;;;;;;5040525;28;20065;-72
2023/05/06 07:34:10;;;;;;;6.18;4.00;;;18.30;99.90;;;;;;5039382;28;20017;-73
2023/05/06 07:36:39;;;;;;;6.72;3.20;;;18.30;99.90;;;;;;5038810;28;20391;-72
2023/05/06 07:39:08;;;;;;;5.88;3.10;;;18.40;99.90;;;;;;5040568;28;20025;-71
2023/05/06 07:41:34;;;;;;;4.45;3.30;;;18.40;99.90;;;;;;5031883;28;20024;-71
2023/05/06 07:44:00;;;;;;;4.18;3.25;;;18.40;99.90;;;;;;5040145;28;20021;-72
2023/05/06 07:46:26;;;;;;;5.47;4.40;;;18.60;99.90;;;;;;5038481;28;20025;-72
2023/05/06 07:48:51;;;;;;;6.57;3.72;;;18.60;99.90;;;;;;5040134;28;20052;-72
2023/05/06 07:51:18;;;;;;;9.15;3.47;;;18.80;99.90;;;;;;5039712;28;20033;-73
2023/05/06 07:53:44;;;;;;;7.75;3.45;;;18.80;99.90;;;;;;5040426;28;20033;-72
2023/05/06 07:56:10;;;;;;;4.32;3.13;;;18.80;99.90;;;;;;5040022;28;20029;-72
2023/05/06 07:58:35;;;;;;;6.15;2.80;;;18.80;99.90;;;;;;5038922;28;20378;-72
2023/05/06 08:01:02;;;;;;;9.88;3.88;;;18.90;99.90;;;;;;5039332;28;20500;-71
2023/05/06 08:03:29;;;;;;;6.50;3.47;;;18.90;99.90;;;;;;5039977;28;20079;-72
2023/05/06 08:05:55;;;;;;;7.03;3.53;;;19.00;99.90;;;;;;5039362;28;20036;-71
2023/05/06 08:08:22;;;;;;;5.38;3.30;;;19.00;99.90;;;;;;5038645;28;20017;-72
2023/05/06 08:10:48;;;;;;;8.05;3.15;;;19.00;99.90;;;;;;5025184;28;20029;-73
2023/05/06 08:13:13;;;;;;;5.13;3.33;;;18.90;99.90;;;;;;5021300;28;20525;-72
2023/05/06 08:15:39;;;;;;;3.58;3.05;;;19.00;99.90;;;;;;5021412;28;20037;-72
2023/05/06 08:18:05;;;;;;;5.75;3.75;;;19.10;99.90;;;;;;5033692;28;20041;-72
2023/05/06 08:20:30;;;;;;;6.50;2.80;;;19.30;99.90;;;;;;5039361;28;20026;-72
2023/05/06 08:22:56;;;;;;;4.72;2.50;;;19.50;99.90;;;;;;5037917;28;20120;-71
2023/05/06 08:25:22;;;;;;;8.13;3.65;;;19.50;99.90;;;;;;5039434;28;20033;-71
2023/05/06 08:27:47;;;;;;;3.60;2.72;;;19.60;99.90;;;;;;5038284;28;20382;-72
2023/05/06 08:30:14;;;;;;;3.75;2.55;;;19.70;99.90;;;;;;5039128;28;20025;-72
2023/05/06 08:32:39;;;;;;;3.78;2.50;;;19.70;99.90;;;;;;5039368;28;20485;-72
2023/05/06 08:35:06;;;;;;;4.22;2.80;;;19.80;99.90;;;;;;5038858;28;20036;-73
2023/05/06 08:37:31;;;;;;;4.07;2.78;;;20.00;99.90;;;;;;5039292;28;20048;-73
2023/05/06 08:39:57;;;;;;;6.35;3.45;;;20.10;99.90;;;;;;5037614;28;20034;-72
2023/05/06 08:42:29;;;;;;;5.00;3.30;;;20.20;99.90;;;;;;5039401;28;20041;-72
2023/05/06 08:44:55;;;;;;;6.40;2.78;;;20.10;99.90;;;;;;5037315;28;20075;-73
2023/05/06 08:47:21;;;;;;;8.07;2.70;;;20.30;99.90;;;;;;5039254;28;20486;-72
2023/05/06 08:49:48;;;;;;;4.57;2.60;;;20.30;99.90;;;;;;5036983;28;20029;-73
2023/05/06 08:52:13;;;;;;;2.97;2.42;;;20.20;99.90;;;;;;5037789;28;20036;-73
2023/05/06 08:54:40;;;;;;;4.78;2.53;;;20.30;99.90;;;;;;5038777;28;20099;-73
2023/05/06 08:57:10;;;;;;;5.25;2.42;;;20.40;99.90;;;;;;5038889;28;20028;-70
2023/05/06 08:59:36;;;;;;;5.53;2.75;;;20.50;99.90;;;;;;5036171;28;20509;-73
2023/05/06 09:02:03;;;;;;;6.22;2.40;;;20.70;99.90;;;;;;5038616;28;20021;-73
2023/05/06 09:04:30;;;;;;;4.70;2.30;;;20.80;99.90;;;;;;5038380;28;20083;-73
2023/05/06 09:06:57;;;;;;;5.25;2.75;;;20.80;99.90;;;;;;5038576;28;20052;-72
2023/05/06 09:09:23;;;;;;;3.22;2.00;;;21.00;99.90;;;;;;5038646;28;20545;-73
2023/05/06 09:11:52;;;;;;;4.40;1.98;;;21.00;99.90;;;;;;5038761;28;20075;-72
2023/05/06 09:14:20;;;;;;;4.93;1.90;;;21.00;99.90;;;;;;5038475;28;20030;-74
2023/05/06 09:16:48;;;;;;;2.55;1.83;;;21.10;99.90;;;;;;5038253;28;20022;-74
2023/05/06 09:19:15;;;;;;;3.85;2.03;;;21.20;99.90;;;;;;5038172;28;20053;-74
2023/05/06 09:21:43;;;;;;;3.72;1.95;;;21.40;99.90;;;;;;5038497;28;20092;-74
2023/05/06 09:24:11;;;;;;;9.63;2.15;;;21.50;99.90;;;;;;5038402;28;20083;-73
2023/05/06 09:26:39;;;;;;;8.25;2.75;;;21.50;99.90;;;;;;5037177;28;20024;-73
2023/05/06 09:29:05;;;;;;;6.07;2.45;;;21.40;99.90;;;;;;5032746;28;20025;-73
2023/05/06 09:31:31;;;;;;;4.15;2.00;;;21.40;99.90;;;;;;5036359;28;20021;-72
2023/05/06 09:33:58;;;;;;;4.32;1.85;;;21.50;99.90;;;;;;5038094;28;20036;-74
2023/05/06 09:36:26;;;;;;;5.40;1.92;;;21.50;99.90;;;;;;5036520;28;20105;-73
2023/05/06 09:38:54;;;;;;;3.80;2.08;;;21.60;99.90;;;;;;5038310;28;20104;-74
2023/05/06 09:41:21;;;;;;;9.35;2.70;;;21.70;99.90;;;;;;5035847;28;20068;-73
2023/05/06 09:43:48;;;;;;;4.40;2.30;;;21.90;99.90;;;;;;5035033;28;20038;-73
2023/05/06 09:46:17;;;;;;;6.15;2.28;;;21.90;99.90;;;;;;5029294;28;20040;-73
2023/05/06 09:48:45;;;;;;;4.07;1.85;;;22.00;99.90;;;;;;5037762;28;20033;-73
2023/05/06 09:51:11;;;;;;;4.80;2.00;;;22.00;99.90;;;;;;5037453;28;20029;-72
2023/05/06 09:53:37;;;;;;;7.72;2.35;;;22.10;99.90;;;;;;5036017;28;20425;-73
2023/05/06 09:56:07;;;;;;;3.30;1.98;;;22.10;99.90;;;;;;5037370;28;20026;-72
2023/05/06 09:58:34;;;;;;;4.75;2.20;;;22.10;99.90;;;;;;5037719;28;20018;-72
2023/05/06 10:01:02;;;;;;;3.40;1.90;;;22.10;99.90;;;;;;5037625;28;20026;-72
2023/05/06 10:03:28;;;;;;;4.00;2.15;;;22.20;99.90;;;;;;5037502;28;20048;-73
2023/05/06 10:05:56;;;;;;;4.10;1.90;;;22.30;99.90;;;;;;5036160;28;20414;-73
2023/05/06 10:08:23;;;;;;;4.07;2.08;;;22.40;99.90;;;;;;5036284;28;20120;-74
2023/05/06 10:10:50;;;;;;;4.38;2.08;;;22.60;99.90;;;;;;5036039;28;20543;-71
2023/05/06 10:13:16;;;;;;;4.45;2.03;;;22.70;99.90;;;;;;5037708;28;20021;-73
2023/05/06 10:15:45;;;;;;;6.38;2.25;;;22.60;99.90;;;;;;5033627;28;20773;-72
2023/05/06 10:18:14;;;;;;;3.03;2.25;;;22.70;99.90;;;;;;5037274;28;20101;-73
2023/05/06 10:20:41;;;;;;;4.00;1.90;;;22.80;99.90;;;;;;5020208;28;20022;-73
2023/05/06 10:23:39;;;;;;;5.22;2.47;;;23.00;99.90;;;;;;5018989;28;20018;-73
2023/05/06 10:26:06;;;;;;;7.15;2.50;;;23.00;99.90;;;;;;5031085;28;20038;-73
2023/05/06 10:28:38;;;;;;;7.25;2.72;;;23.00;99.90;;;;;;5035663;28;20112;-74
2023/05/06 10:31:07;;;;;;;3.90;2.13;;;23.00;99.90;;;;;;5037444;28;20024;-74
2023/05/06 10:33:33;;;;;;;4.03;2.65;;;23.10;99.90;;;;;;5034868;28;20052;-74
2023/05/06 10:36:24;;;;;;;4.10;1.95;;;23.20;99.90;;;;;;5020457;28;20022;-74
2023/05/06 10:38:59;;;;;;;3.92;1.67;;;23.20;99.90;;;;;;5018588;28;20045;-74
2023/05/06 10:41:26;;;;;;;9.55;2.80;;;23.20;99.90;;;;;;5027814;28;20024;-75
2023/05/06 10:43:58;;;;;;;4.75;1.73;;;23.30;99.90;;;;;;5033712;28;20080;-74
2023/05/06 10:46:27;;;;;;;4.15;1.70;;;23.30;99.90;;;;;;5032413;28;20025;-74
2023/05/06 10:49:07;;;;;;;4.35;2.33;;;23.30;99.90;;;;;;5036012;28;20033;-74
2023/05/06 10:51:40;;;;;;;7.65;2.17;;;23.40;99.90;;;;;;5034058;28;20049;-75
2023/05/06 10:54:06;;;;;;;2.67;2.00;;;23.50;99.90;;;;;;5034271;28;20509;-75
2023/05/06 10:56:37;;;;;;;3.47;2.53;;;23.50;99.90;;;;;;5034291;28;20023;-75
2023/05/06 10:59:08;;;;;;;3.35;2.08;;;23.60;99.90;;;;;;5034691;28;20017;-75
2023/05/06 11:01:37;;;;;;;;;;;23.70;99.90;;;;;;5023085;28;20021;-74
2023/05/06 11:04:06;;;;;;;6.57;1.92;;;23.70;99.90;;;;;;5020480;28;19905;-74
2023/05/06 11:06:37;;;;;;;8.20;1.92;;;23.70;99.90;;;;;;5019267;28;20026;-74
2023/05/06 11:09:04;;;;;;;3.33;2.33;;;23.70;99.90;;;;;;5032016;28;20486;-74
2023/05/06 11:11:49;;;;;;;4.40;1.60;;;23.80;99.90;;;;;;5036956;28;20033;-74
2023/05/06 11:14:28;;;;;;;5.57;2.00;;;23.80;99.90;;;;;;5035133;28;20022;-74
2023/05/06 11:16:56;;;;;;;2.83;2.00;;;24.00;99.90;;;;;;5036509;28;20026;-74
2023/05/06 11:19:31;;;;;;;2.97;2.13;;;24.00;99.90;;;;;;5035214;28;20029;-73
2023/05/06 11:21:59;;;;;;;3.03;2.13;;;24.00;99.90;;;;;;5036630;28;20100;-74
2023/05/06 11:24:27;;;;;;;5.82;2.30;;;24.00;99.90;;;;;;5036820;28;20104;-73
2023/05/06 11:27:00;;;;;;;4.90;2.25;;;24.10;99.90;;;;;;5036468;28;20030;-73
2023/05/06 11:29:26;;;;;;;4.22;1.90;;;24.20;99.90;;;;;;5036667;28;20032;-74
2023/05/06 11:31:52;;;;;;;2.97;1.83;;;24.30;99.90;;;;;;5036381;28;20124;-73
2023/05/06 11:34:37;;;;;;;3.10;1.83;;;24.40;99.90;;;;;;5034937;28;20029;-74
2023/05/06 11:37:05;;;;;;;3.50;2.15;;;24.60;99.90;;;;;;5036321;28;20481;-74
2023/05/06 11:39:35;;;;;;;5.15;1.65;;;24.70;99.90;;;;;;5036736;28;20028;-75
2023/05/06 11:42:05;;;;;;;4.57;2.63;;;24.70;99.90;;;;;;5036462;28;20030;-73
2023/05/06 11:44:32;;;;;;;;;;;24.80;99.90;;;;;;5036970;28;20317;-74
2023/05/06 11:47:00;;;;;;;6.18;1.92;;;24.80;99.90;;;;;;5036682;28;19996;-73
2023/05/06 11:49:26;;;;;;;4.47;1.90;;;25.10;99.90;;;;;;5022706;28;20030;-73
2023/05/06 11:51:53;;;;;;;3.75;1.85;;;25.10;99.90;;;;;;5036643;28;20029;-73
2023/05/06 11:54:21;;;;;;;5.05;1.80;;;25.10;99.90;;;;;;5036539;28;20021;-74
2023/05/06 11:56:52;;;;;;;6.72;2.10;;;25.10;99.90;;;;;;5033990;28;20093;-73
2023/05/06 11:59:28;;;;;;;5.28;2.15;;;25.20;99.90;;;;;;5039062;28;20032;-73
2023/05/06 12:01:56;;;;;;;5.32;1.98;;;25.10;99.90;;;;;;5031064;28;20033;-73
2023/05/06 12:04:21;;;;;;;4.25;2.10;;;25.10;99.90;;;;;;5039640;28;20809;-73
2023/05/06 12:06:47;;;;;;;3.13;2.30;;;25.10;99.90;;;;;;5039840;28;20211;-76
2023/05/06 12:09:13;;;;;;;4.40;2.33;;;25.20;99.90;;;;;;5039593;28;20488;-73
2023/05/06 12:11:39;;;;;;;5.47;2.22;;;25.30;99.90;;;;;;5039932;28;20037;-73
2023/05/06 12:14:07;;;;;;;4.78;1.65;;;25.40;99.90;;;;;;5039742;28;20022;-73
2023/05/06 12:16:35;;;;;;;4.50;1.88;;;25.50;99.90;;;;;;5039794;28;20079;-75
2023/05/06 12:19:01;;;;;;;6.10;1.95;;;25.60;99.90;;;;;;5039232;28;20523;-75
2023/05/06 12:21:28;;;;;;;5.13;2.10;;;25.60;99.90;;;;;;5039690;28;20021;-74
2023/05/06 12:23:57;;;;;;;5.15;1.70;;;25.70;99.90;;;;;;5039408;28;20017;-73
2023/05/06 12:26:22;;;;;;;4.40;2.22;;;25.60;99.90;;;;;;5039521;28;20091;-74
2023/05/06 12:29:10;;;;;;;5.07;2.05;;;25.60;99.90;;;;;;5039414;28;20029;-74
2023/05/06 12:31:36;;;;;;;4.05;1.70;;;25.80;99.90;;;;;;5034637;28;20032;-75
2023/05/06 12:34:03;;;;;;;7.32;2.05;;;25.90;99.90;;;;;;5039227;28;20033;-75
2023/05/06 12:36:31;;;;;;;7.25;2.17;;;25.70;99.90;;;;;;5039269;28;20148;-76
2023/05/06 12:38:59;;;;;;;4.78;2.55;;;25.70;99.90;;;;;;5039409;28;20473;-76